Time;durP1;ratioP1;P1;durP2;ratioP2;P2;SDS_P1;SDS_P2;PMS_P1;PMS_P2;Temp;Humidity;BMP_temperature;BMP_pressure;BME280_temperature;BME280_humidity;BME280_pressure;Samples;Min_cycle;Max_cycle;Signal;HPM_P1;HPM_P2
2024/01/09 00:03:56;;;;;;;103.50;35.90;;;;;;;-13.31;78.45;100556.23;224332;1271;25381;-73
2024/01/09 00:09:03;;;;;;;104.60;36.30;;;;;;;-13.37;78.50;100555.39;224327;1290;21751;-73
2024/01/09 00:14:05;;;;;;;57.00;20.60;;;;;;;-13.41;78.62;100560.45;224325;1287;22517;-73
2024/01/09 00:19:07;;;;;;;100.60;37.20;;;;;;;-13.46;78.72;100563.65;224309;1286;24824;-73
2024/01/09 00:24:09;;;;;;;89.60;35.60;;;;;;;-13.53;78.40;100566.70;224333;1289;22551;-73
2024/01/09 00:29:11;;;;;;;92.80;34.20;;;;;;;-13.59;78.69;100570.38;224286;1289;22641;-73
2024/01/09 00:34:13;;;;;;;83.10;32.40;;;;;;;-13.64;78.57;100571.04;224379;1286;21820;-73
2024/01/09 00:39:16;;;;;;;100.00;37.70;;;;;;;-13.67;78.67;100573.25;224365;1290;22534;-72
2024/01/09 00:44:18;;;;;;;73.70;27.80;;;;;;;-13.68;78.94;100575.11;224358;1290;22528;-72
2024/01/09 00:49:20;;;;;;;84.40;29.90;;;;;;;-13.70;78.93;100578.30;224308;1290;22521;-72
2024/01/09 00:54:22;;;;;;;101.20;39.40;;;;;;;-13.75;78.86;100587.41;224239;1289;22674;-74
2024/01/09 00:59:24;;;;;;;104.10;39.30;;;;;;;-13.75;79.01;100587.41;224285;1280;22529;-72
2024/01/09 01:04:26;;;;;;;90.50;34.40;;;;;;;-13.75;79.25;100594.70;224245;1290;21802;-73
2024/01/09 01:09:28;;;;;;;99.70;41.40;;;;;;;-13.74;79.37;100599.79;224378;1286;21840;-72
2024/01/09 01:14:29;;;;;;;94.40;38.60;;;;;;;-13.73;79.22;100602.34;224329;1286;22521;-72
2024/01/09 01:19:31;;;;;;;80.70;30.40;;;;;;;-13.74;79.33;100600.80;224344;1284;22629;-72
2024/01/09 01:24:34;;;;;;;83.30;35.20;;;;;;;-13.77;79.12;100607.38;224332;1287;22529;-74
2024/01/09 01:29:35;;;;;;;77.00;30.40;;;;;;;-13.80;78.95;100610.27;224354;1286;22524;-74
2024/01/09 01:34:38;;;;;;;69.00;29.80;;;;;;;-13.79;78.95;100613.30;224278;1287;22535;-74
2024/01/09 01:39:40;;;;;;;72.60;30.70;;;;;;;-13.80;79.08;100606.02;224291;1290;22533;-74
2024/01/09 01:44:42;;;;;;;65.50;27.50;;;;;;;-13.83;78.93;100611.61;224204;1290;22531;-74
2024/01/09 01:49:44;;;;;;;74.80;30.00;;;;;;;-13.87;79.07;100619.20;224312;1287;22513;-74
2024/01/09 01:54:46;;;;;;;76.90;31.30;;;;;;;-13.90;78.95;100615.61;224207;1289;22530;-74
2024/01/09 01:59:48;;;;;;;71.80;29.50;;;;;;;-13.94;78.82;100618.13;224316;1284;22630;-74
2024/01/09 02:04:51;;;;;;;64.00;26.60;;;;;;;-13.96;79.00;100619.31;224329;1287;22524;-74
2024/01/09 02:09:53;;;;;;;59.50;22.80;;;;;;;-13.98;78.92;100619.66;224315;1280;22527;-71
2024/01/09 02:14:55;;;;;;;78.10;30.40;;;;;;;-14.00;78.98;100622.17;224307;1290;24288;-74
2024/01/09 02:20:01;;;;;;;78.40;30.60;;;;;;;-14.01;78.97;100620.81;224252;1284;22537;-74
2024/01/09 02:25:04;;;;;;;67.10;27.70;;;;;;;-14.02;79.01;100616.57;224325;1284;22526;-74
2024/01/09 02:30:07;;;;;;;69.50;29.50;;;;;;;-14.04;79.14;100622.64;224287;1290;22720;-72
2024/01/09 02:35:09;;;;;;;79.50;34.10;;;;;;;-14.01;79.18;100629.61;224837;1284;22712;-72
2024/01/09 02:40:11;;;;;;;88.20;35.50;;;;;;;-13.98;79.29;100622.36;224155;1289;22613;-72
2024/01/09 02:45:13;;;;;;;85.20;35.90;;;;;;;-13.97;79.51;100623.72;224314;1267;22991;-72
2024/01/09 02:50:16;;;;;;;79.70;35.30;;;;;;;-13.99;79.27;100620.50;224204;1290;22542;-74
2024/01/09 02:55:18;;;;;;;70.20;29.10;;;;;;;-14.01;79.24;100623.69;224288;1284;22628;-72
2024/01/09 03:00:20;;;;;;;75.20;29.50;;;;;;;-14.05;79.04;100616.55;224202;1290;21731;-72
2024/01/09 03:05:22;;;;;;;71.20;29.30;;;;;;;-14.08;78.92;100619.58;224266;1288;22512;-74
2024/01/09 03:10:25;;;;;;;59.30;22.90;;;;;;;-14.10;78.95;100615.34;224378;1287;21822;-72
2024/01/09 03:15:27;;;;;;;65.50;26.80;;;;;;;-14.13;79.02;100615.66;224311;1287;22529;-72
2024/01/09 03:20:29;;;;;;;59.50;22.00;;;;;;;-14.18;78.84;100611.90;224311;1284;22516;-72
2024/01/09 03:25:31;;;;;;;66.40;27.60;;;;;;;-14.19;78.91;100612.23;224262;1289;22508;-72
2024/01/09 03:30:34;;;;;;;70.20;26.30;;;;;;;-14.21;78.83;100611.02;224315;1279;21856;-72
2024/01/09 03:35:35;;;;;;;69.90;26.30;;;;;;;-14.24;78.74;100604.41;224390;1287;22538;-72
2024/01/09 03:40:38;;;;;;;62.70;26.40;;;;;;;-14.25;78.85;100609.66;224326;1289;22759;-72
2024/01/09 03:45:40;;;;;;;62.30;24.10;;;;;;;-14.28;78.96;100613.87;224320;1284;22580;-72
2024/01/09 03:50:42;;;;;;;51.00;23.40;;;;;;;-14.34;78.78;100623.45;224346;1287;22582;-72
2024/01/09 03:55:45;;;;;;;59.70;26.10;;;;;;;-14.39;78.63;100624.29;224319;1289;22563;-72
2024/01/09 04:00:47;;;;;;;102.30;36.00;;;;;;;-14.42;78.79;100625.30;224250;1290;22546;-74
2024/01/09 04:05:50;;;;;;;82.60;30.30;;;;;;;-14.47;78.68;100629.98;224318;1281;21770;-72
2024/01/09 04:10:52;;;;;;;95.20;34.30;;;;;;;-14.55;78.56;100628.40;224322;1283;22643;-72
2024/01/09 04:15:54;;;;;;;45.90;16.70;;;;;;;-14.60;78.58;100623.29;224296;1279;21741;-74
2024/01/09 04:20:56;;;;;;;102.10;38.90;;;;;;;-14.64;78.70;100620.70;224334;1286;22549;-72
2024/01/09 04:25:58;;;;;;;102.60;40.30;;;;;;;-14.68;78.67;100621.17;224288;1279;22709;-72
2024/01/09 04:31:00;;;;;;;95.80;40.60;;;;;;;-14.64;78.93;100617.83;224319;1289;22760;-73
2024/01/09 04:36:03;;;;;;;101.90;42.60;;;;;;;-14.58;79.13;100618.58;224290;1289;22551;-73
2024/01/09 04:41:05;;;;;;;98.90;40.50;;;;;;;-14.55;79.14;100620.63;224299;1289;21782;-73
2024/01/09 04:46:07;;;;;;;102.80;38.50;;;;;;;-14.54;79.14;100619.94;224301;1287;22602;-73
2024/01/09 04:51:09;;;;;;;79.00;32.20;;;;;;;-14.60;78.79;100623.79;224297;1286;22613;-73
2024/01/09 04:56:12;;;;;;;82.00;31.10;;;;;;;-14.69;78.71;100624.23;224323;1287;21919;-73
2024/01/09 05:01:14;;;;;;;79.20;31.80;;;;;;;-14.75;78.49;100630.59;224340;1287;22645;-73
2024/01/09 05:06:17;;;;;;;79.30;33.60;;;;;;;-14.78;78.55;100634.61;224268;1287;21845;-73
2024/01/09 05:11:19;;;;;;;68.00;27.90;;;;;;;-14.83;78.49;100638.80;224374;1286;22511;-73
2024/01/09 05:16:24;;;;;;;61.30;25.00;;;;;;;-14.90;78.60;100640.25;224211;1290;21832;-73
2024/01/09 05:21:26;;;;;;;84.80;33.60;;;;;;;-14.96;78.51;100646.94;224287;1284;21902;-73
2024/01/09 05:26:28;;;;;;;98.00;40.10;;;;;;;-15.02;78.47;100653.48;224273;1289;22517;-73
2024/01/09 05:31:30;;;;;;;68.70;28.20;;;;;;;-15.08;78.47;100657.80;224288;1283;21871;-73
2024/01/09 05:36:32;;;;;;;78.40;28.50;;;;;;;-15.14;78.50;100663.48;224282;1287;22552;-73
2024/01/09 05:41:35;;;;;;;86.90;35.60;;;;;;;-15.18;78.62;100658.71;224318;1287;22541;-73
2024/01/09 05:46:37;;;;;;;80.90;34.70;;;;;;;-15.20;78.67;100662.73;224323;1289;22538;-72
2024/01/09 05:51:39;;;;;;;65.90;26.00;;;;;;;-15.25;78.56;100668.59;224334;1287;21732;-72
2024/01/09 05:56:41;;;;;;;79.00;31.20;;;;;;;-15.28;78.50;100675.13;224292;1290;22516;-73
2024/01/09 06:01:43;;;;;;;89.10;33.00;;;;;;;-15.35;78.49;100667.63;224267;1289;22656;-73
2024/01/09 06:06:45;;;;;;;97.10;36.50;;;;;;;-15.37;78.73;100677.73;224301;1287;22499;-73
2024/01/09 06:11:47;;;;;;;82.80;32.80;;;;;;;-15.36;78.66;100689.91;224269;1289;22570;-73
2024/01/09 06:16:49;;;;;;;78.30;31.20;;;;;;;-15.34;78.65;100690.61;224352;1273;23015;-72
2024/01/09 06:21:51;;;;;;;65.30;25.30;;;;;;;-15.31;78.89;100691.33;224346;1290;22464;-72
2024/01/09 06:26:54;;;;;;;87.30;35.40;;;;;;;-15.29;78.99;100692.55;224366;1284;22523;-72
2024/01/09 06:31:56;;;;;;;59.00;24.60;;;;;;;-15.26;78.94;100701.16;224323;1287;22677;-73
2024/01/09 06:36:58;;;;;;;81.80;31.20;;;;;;;-15.26;78.98;100702.52;224378;1286;22649;-72
2024/01/09 06:42:00;;;;;;;81.80;33.10;;;;;;;-15.26;79.04;100703.20;224279;1289;22705;-72
2024/01/09 06:47:02;;;;;;;84.30;35.90;;;;;;;-15.25;78.99;100709.11;224345;1287;22530;-72
2024/01/09 06:52:05;;;;;;;77.70;31.40;;;;;;;-15.24;78.96;100707.27;224294;1288;26066;-72
2024/01/09 06:57:07;;;;;;;83.80;32.40;;;;;;;-15.20;79.04;100721.36;224140;1271;22553;-72
2024/01/09 07:02:09;;;;;;;82.50;33.20;;;;;;;-15.12;79.34;100727.70;224056;1268;22571;-72
2024/01/09 07:07:12;;;;;;;80.60;33.40;;;;;;;-15.03;79.18;100726.98;224023;1277;25614;-72
2024/01/09 07:12:16;;;;;;;77.90;31.20;;;;;;;-14.97;79.06;100726.02;224074;1268;22527;-76
2024/01/09 07:17:19;;;;;;;61.90;26.90;;;;;;;-14.90;79.05;100734.73;223935;1271;24417;-74
2024/01/09 07:22:21;;;;;;;91.70;35.70;;;;;;;-14.85;78.83;100738.19;224023;1282;22495;-72
2024/01/09 07:27:23;;;;;;;99.50;38.40;;;;;;;-14.80;78.82;100738.73;224057;1284;22983;-74
2024/01/09 07:32:26;;;;;;;89.60;36.30;;;;;;;-14.65;79.03;100735.02;223799;1274;22498;-73
2024/01/09 07:37:28;;;;;;;98.90;41.20;;;;;;;-14.41;79.46;100730.66;223691;1267;22526;-74
2024/01/09 07:42:30;;;;;;;76.50;32.60;;;;;;;-14.23;79.23;100725.73;223711;1280;22501;-77
2024/01/09 07:47:38;;;;;;;74.20;29.90;;;;;;;-14.09;79.04;100720.61;223621;1283;22756;-75
2024/01/09 07:52:40;;;;;;;47.20;18.20;;;;;;;-13.96;78.67;100727.65;223652;1277;25472;-76
2024/01/09 07:57:42;;;;;;;63.90;25.40;;;;;;;-13.79;78.47;100736.40;223619;1280;22582;-74
2024/01/09 08:02:45;;;;;;;70.80;28.60;;;;;;;-13.37;78.87;100735.15;223747;1274;22566;-75
2024/01/09 08:07:47;;;;;;;67.50;28.30;;;;;;;-13.09;78.59;100736.80;223776;1273;22527;-75
2024/01/09 08:12:49;;;;;;;67.10;27.50;;;;;;;-12.89;78.17;100739.58;223877;1284;22513;-75
2024/01/09 08:17:52;;;;;;;50.40;22.40;;;;;;;-12.75;78.05;100731.14;223521;1270;23748;-73
2024/01/09 08:22:58;;;;;;;56.00;22.90;;;;;;;-12.72;77.52;100734.20;223899;1284;22633;-74
2024/01/09 08:28:00;;;;;;;67.50;28.00;;;;;;;-12.67;77.34;100734.58;223953;1284;21757;-73
2024/01/09 08:33:02;;;;;;;58.40;25.00;;;;;;;-12.58;77.38;100737.46;224003;1271;24137;-74
2024/01/09 08:38:04;;;;;;;56.20;23.90;;;;;;;-12.48;77.40;100736.83;223853;1283;24418;-74
2024/01/09 08:43:06;;;;;;;47.40;19.90;;;;;;;-12.17;77.73;100736.70;223822;1268;22605;-74
2024/01/09 08:48:08;;;;;;;54.50;24.50;;;;;;;-11.93;77.24;100738.05;223847;1280;21739;-74
2024/01/09 08:53:10;;;;;;;59.20;26.30;;;;;;;-11.29;77.74;100733.35;223823;1283;22589;-73
2024/01/09 08:58:12;;;;;;;68.30;28.80;;;;;;;-11.14;76.83;100737.56;224063;1268;22748;-74
2024/01/09 09:03:14;;;;;;;61.50;28.60;;;;;;;-11.07;76.52;100744.00;224037;1283;22626;-76
2024/01/09 09:08:19;;;;;;;65.80;27.50;;;;;;;-10.94;76.60;100748.39;223972;1281;23102;-74
2024/01/09 09:13:22;;;;;;;62.50;28.40;;;;;;;-10.76;76.72;100742.87;223895;1271;22634;-75
2024/01/09 09:18:24;;;;;;;62.40;27.20;;;;;;;-10.64;76.63;100737.36;223690;1283;22595;-77
2024/01/09 09:23:26;;;;;;;57.70;25.70;;;;;;;-10.57;76.30;100732.89;223467;1269;22619;-77
2024/01/09 09:28:29;;;;;;;56.90;25.10;;;;;;;-10.48;76.27;100729.77;223663;1277;22631;-76
2024/01/09 09:33:46;;;;;;;61.00;26.60;;;;;;;-10.32;76.16;100729.34;223748;1281;24271;-76
2024/01/09 09:38:52;;;;;;;67.20;29.40;;;;;;;-10.20;76.19;100727.54;223774;1271;22602;-77
2024/01/09 09:43:58;;;;;;;58.20;27.10;;;;;;;-10.06;75.96;100728.61;223757;1287;22705;-76
2024/01/09 09:49:01;;;;;;;67.50;31.60;;;;;;;-9.88;75.97;100719.95;226955;1284;22309;-75
2024/01/09 09:54:03;;;;;;;71.90;31.80;;;;;;;-9.69;75.91;100715.34;226844;1274;22823;-77
2024/01/09 09:59:05;;;;;;;64.80;30.70;;;;;;;-9.48;75.68;100713.45;226494;1283;22646;-77
2024/01/09 10:04:26;;;;;;;59.10;25.30;;;;;;;-9.28;75.66;100705.89;225506;1282;21926;-76
2024/01/09 10:09:37;;;;;;;56.90;23.30;;;;;;;-9.08;75.24;100701.41;223981;1287;22587;-76
2024/01/09 10:15:02;;;;;;;45.60;22.30;;;;;;;-8.93;75.25;100689.27;224056;1284;22673;-77
2024/01/09 10:20:13;;;;;;;45.10;21.40;;;;;;;-8.77;75.00;100680.86;224019;1289;22741;-77
2024/01/09 10:25:17;;;;;;;50.30;21.30;;;;;;;-8.71;74.59;100672.08;224058;1276;22586;-77
2024/01/09 10:30:21;;;;;;;47.60;21.30;;;;;;;-8.72;74.17;100664.74;224090;1287;22613;-77
2024/01/09 10:35:25;;;;;;;47.30;20.70;;;;;;;-8.63;74.30;100658.81;224102;1280;22594;-77
2024/01/09 10:40:28;;;;;;;45.80;21.00;;;;;;;-8.52;74.11;100659.16;224115;1280;22686;-78
2024/01/09 10:45:31;;;;;;;43.00;20.20;;;;;;;-8.41;74.18;100654.89;224127;1287;22682;-77
2024/01/09 10:50:33;;;;;;;41.40;20.10;;;;;;;-8.32;74.03;100646.89;224178;1287;22672;-77
2024/01/09 10:55:38;;;;;;;49.50;22.30;;;;;;;-8.19;74.01;100637.27;224004;1283;22769;-76
2024/01/09 11:00:41;;;;;;;48.30;21.70;;;;;;;-8.09;73.84;100636.08;224089;1287;22631;-77
2024/01/09 11:05:44;;;;;;;47.20;21.90;;;;;;;-7.96;73.81;100623.37;226986;1267;22270;-78
2024/01/09 11:10:47;;;;;;;43.90;20.90;;;;;;;-7.72;74.18;100620.88;224451;1274;22876;-76
2024/01/09 11:15:54;;;;;;;47.30;21.00;;;;;;;-7.42;74.37;100617.05;224116;1287;23089;-77
2024/01/09 11:21:04;;;;;;;45.30;20.70;;;;;;;-7.09;74.31;100610.38;224033;1287;22837;-74
2024/01/09 11:26:06;;;;;;;39.50;18.90;;;;;;;-6.85;74.02;100602.48;224463;1271;137729;-74
2024/01/09 11:31:12;;;;;;;32.00;15.50;;;;;;;-6.75;73.40;100598.66;224016;1280;22641;-74
2024/01/09 11:36:33;;;;;;;34.30;15.50;;;;;;;-6.61;73.24;100595.44;224375;1276;22580;-75
2024/01/09 11:41:37;;;;;;;32.30;14.80;;;;;;;-6.43;73.06;100584.21;224128;1285;22599;-73
2024/01/09 11:46:40;;;;;;;37.40;18.20;;;;;;;-6.29;72.65;100581.82;224194;1286;22665;-73
2024/01/09 11:51:42;;;;;;;34.10;17.00;;;;;;;-6.14;72.82;100573.38;224111;1287;22749;-74
2024/01/09 11:56:44;;;;;;;28.90;14.10;;;;;;;-5.96;72.54;100562.60;223959;1268;22624;-78
2024/01/09 12:01:47;;;;;;;28.30;14.10;;;;;;;-5.78;72.40;100553.69;223884;1282;22622;-76
2024/01/09 12:06:49;;;;;;;27.10;13.10;;;;;;;-5.66;72.16;100552.66;223860;1284;22644;-76
2024/01/09 12:11:51;;;;;;;21.90;11.50;;;;;;;-5.55;71.74;100549.79;223850;1287;23530;-77
2024/01/09 12:16:53;;;;;;;21.60;11.40;;;;;;;-5.44;71.70;100540.36;223991;1284;22616;-77
2024/01/09 12:21:56;;;;;;;22.50;11.10;;;;;;;-5.36;71.46;100538.23;224181;1285;22646;-77
2024/01/09 12:26:59;;;;;;;22.40;10.10;;;;;;;-5.26;71.34;100540.86;223746;1284;22740;-76
2024/01/09 12:32:01;;;;;;;24.10;12.30;;;;;;;-5.12;71.29;100541.45;223680;1284;22735;-76
2024/01/09 12:37:05;;;;;;;21.00;10.70;;;;;;;-5.00;71.40;100538.36;223709;1287;22591;-76
2024/01/09 12:42:16;;;;;;;22.10;10.80;;;;;;;-4.89;71.15;100533.88;223990;1280;22727;-77
2024/01/09 12:47:18;;;;;;;24.60;12.40;;;;;;;-4.80;70.82;100528.98;224051;1275;22643;-76
2024/01/09 12:52:21;;;;;;;26.00;12.00;;;;;;;-4.77;70.57;100536.61;224017;1276;22627;-77
2024/01/09 12:57:23;;;;;;;26.30;12.30;;;;;;;-4.69;70.77;100539.77;224033;1267;22604;-77
2024/01/09 13:02:25;;;;;;;25.20;12.30;;;;;;;-4.58;70.89;100539.41;224161;1271;22627;-75
2024/01/09 13:07:28;;;;;;;25.10;12.20;;;;;;;-4.53;70.10;100537.39;224271;1287;26352;-77
2024/01/09 13:12:30;;;;;;;28.40;12.60;;;;;;;-4.50;70.17;100545.70;224333;1286;22839;-77
2024/01/09 13:17:31;;;;;;;25.50;11.70;;;;;;;-4.52;69.88;100536.84;224132;1284;22702;-78
2024/01/09 13:22:34;;;;;;;22.30;11.20;;;;;;;-4.52;70.06;100540.61;223974;1273;22635;-78
2024/01/09 13:27:56;;;;;;;22.50;10.50;;;;;;;-4.49;70.13;100542.77;223689;1273;22600;-73
2024/01/09 13:33:00;;;;;;;24.40;11.70;;;;;;;-4.47;70.09;100542.17;223549;1290;25415;-75
2024/01/09 13:38:06;;;;;;;21.90;10.70;;;;;;;-4.44;69.95;100543.92;223446;1267;23650;-75
2024/01/09 13:43:09;;;;;;;24.30;12.10;;;;;;;-4.42;70.06;100544.40;226415;1290;22263;-76
2024/01/09 13:48:14;;;;;;;25.10;11.60;;;;;;;-4.43;69.77;100549.25;226484;1288;24297;-75
2024/01/09 13:53:18;;;;;;;27.10;12.60;;;;;;;-4.43;69.62;100548.55;226556;1286;24286;-76
2024/01/09 13:58:45;;;;;;;22.60;11.60;;;;;;;-4.46;69.38;100542.31;226271;1289;22313;-75
2024/01/09 14:03:47;;;;;;;26.90;12.30;;;;;;;-4.46;69.21;100542.16;226582;1286;22680;-75
2024/01/09 14:08:49;;;;;;;25.00;11.80;;;;;;;-4.48;69.54;100542.20;226503;1272;22589;-75
2024/01/09 14:13:52;;;;;;;26.00;13.10;;;;;;;-4.54;69.39;100543.61;226492;1283;24309;-76
2024/01/09 14:18:54;;;;;;;45.80;22.60;;;;;;;-4.61;69.32;100542.61;226410;1283;24313;-77
2024/01/09 14:23:56;;;;;;;51.70;24.10;;;;;;;-4.81;68.77;100540.35;226451;1283;22346;-75
2024/01/09 14:28:58;;;;;;;48.90;24.80;;;;;;;-5.18;68.51;100540.61;226445;1282;22286;-73
2024/01/09 14:34:00;;;;;;;55.60;26.50;;;;;;;-5.50;68.79;100546.36;226478;1279;22268;-74
2024/01/09 14:39:02;;;;;;;62.80;29.30;;;;;;;-5.70;69.33;100553.29;226378;1283;22324;-73
2024/01/09 14:44:04;;;;;;;62.40;30.40;;;;;;;-5.90;69.39;100553.87;226439;1283;22301;-76
2024/01/09 14:49:06;;;;;;;60.20;29.30;;;;;;;-6.23;68.94;100560.38;226503;1275;22950;-75
2024/01/09 14:54:08;;;;;;;67.90;30.70;;;;;;;-6.55;69.25;100565.48;226484;1283;22351;-73
2024/01/09 14:59:28;;;;;;;79.70;36.60;;;;;;;-6.83;69.41;100569.22;225101;1274;22816;-73
2024/01/09 15:04:33;;;;;;;67.40;31.70;;;;;;;-7.04;70.15;100571.58;223690;1270;23191;-73
2024/01/09 15:09:35;;;;;;;66.70;30.90;;;;;;;-7.19;70.65;100574.48;223915;1275;22592;-73
2024/01/09 15:14:37;;;;;;;75.20;35.60;;;;;;;-7.38;70.59;100578.64;223788;1285;22735;-73
2024/01/09 15:19:40;;;;;;;78.10;36.20;;;;;;;-7.49;70.98;100586.55;223866;1280;24247;-73
2024/01/09 15:24:43;;;;;;;93.70;41.00;;;;;;;-7.61;71.39;100584.73;223977;1290;22703;-72
2024/01/09 15:29:45;;;;;;;91.60;40.80;;;;;;;-7.74;71.40;100589.95;224187;1290;22883;-73
2024/01/09 15:34:46;;;;;;;94.70;39.90;;;;;;;-7.91;71.52;100592.85;224342;1289;22796;-73
2024/01/09 15:39:48;;;;;;;105.80;43.40;;;;;;;-8.17;71.39;100596.04;224318;1287;22679;-74
2024/01/09 15:44:51;;;;;;;103.00;45.80;;;;;;;-8.36;71.67;100603.06;224358;1289;22798;-73
2024/01/09 15:49:53;;;;;;;92.90;40.80;;;;;;;-8.66;71.73;100602.86;224250;1286;22837;-73
2024/01/09 15:54:55;;;;;;;98.10;44.60;;;;;;;-8.90;72.04;100605.08;224327;1286;23533;-73
2024/01/09 15:59:58;;;;;;;111.50;48.00;;;;;;;-9.10;72.40;100617.28;224332;1286;22661;-72
2024/01/09 16:05:00;;;;;;;127.30;55.30;;;;;;;-9.36;72.31;100618.83;224474;1286;22841;-73
2024/01/09 16:10:07;;;;;;;115.20;49.90;;;;;;;-9.61;72.79;100620.82;224456;1283;22754;-72
2024/01/09 16:15:09;;;;;;;109.00;44.80;;;;;;;-9.93;72.81;100621.66;224455;1285;25574;-72
2024/01/09 16:20:12;;;;;;;113.40;49.70;;;;;;;-10.24;72.86;100627.09;224477;1287;22791;-72
2024/01/09 16:25:15;;;;;;;118.70;50.50;;;;;;;-10.45;73.31;100629.48;224434;1289;22704;-73
2024/01/09 16:30:17;;;;;;;115.20;47.80;;;;;;;-10.62;73.60;100635.56;224378;1288;25348;-73
2024/01/09 16:35:19;;;;;;;130.00;54.70;;;;;;;-10.80;73.90;100631.60;224451;1288;22589;-72
2024/01/09 16:40:21;;;;;;;116.30;46.80;;;;;;;-10.94;74.18;100635.92;224478;1288;22927;-73
2024/01/09 16:45:23;;;;;;;114.50;48.10;;;;;;;-11.12;74.29;100646.39;224446;1283;21894;-73
2024/01/09 16:50:25;;;;;;;95.80;40.50;;;;;;;-11.27;74.30;100653.61;224455;1281;22561;-74
2024/01/09 16:55:27;;;;;;;102.70;42.80;;;;;;;-11.40;74.67;100656.04;224451;1284;21987;-73
2024/01/09 17:00:29;;;;;;;90.90;37.80;;;;;;;-11.50;74.90;100658.45;224459;1287;21793;-72
2024/01/09 17:05:31;;;;;;;98.00;38.70;;;;;;;-11.55;74.99;100660.66;224444;1285;22565;-72
2024/01/09 17:10:34;;;;;;;97.90;42.30;;;;;;;-11.59;75.42;100664.77;224336;1280;21854;-72
2024/01/09 17:15:36;;;;;;;81.30;36.30;;;;;;;-11.67;75.45;100667.16;224368;1278;22541;-72
2024/01/09 17:20:38;;;;;;;115.30;49.20;;;;;;;-11.76;75.68;100672.48;224455;1287;21830;-75
2024/01/09 17:25:40;;;;;;;113.20;46.70;;;;;;;-11.83;75.68;100669.59;224385;1288;25321;-73
2024/01/09 17:30:43;;;;;;;128.70;52.70;;;;;;;-11.90;75.72;100667.92;224422;1287;22536;-73
2024/01/09 17:35:45;;;;;;;117.60;46.80;;;;;;;-11.93;75.96;100672.34;224477;1286;22157;-73
2024/01/09 17:40:47;;;;;;;131.00;51.00;;;;;;;-11.98;76.13;100671.65;224399;1273;21778;-73
2024/01/09 17:45:51;;;;;;;136.90;57.60;;;;;;;-11.98;76.26;100670.80;224470;1286;22554;-73
2024/01/09 17:50:54;;;;;;;140.10;55.50;;;;;;;-11.98;76.36;100669.10;224424;1283;22515;-73
2024/01/09 17:55:56;;;;;;;128.60;53.30;;;;;;;-12.01;76.55;100672.17;224431;1286;22533;-73
2024/01/09 18:00:58;;;;;;;113.70;48.80;;;;;;;-12.10;76.35;100670.64;224458;1286;24900;-73
2024/01/09 18:06:00;;;;;;;127.00;50.50;;;;;;;-12.20;76.32;100669.46;224438;1286;22537;-73
2024/01/09 18:11:03;;;;;;;118.10;49.70;;;;;;;-12.30;76.33;100664.70;224432;1288;22527;-73
2024/01/09 18:16:09;;;;;;;124.20;49.00;;;;;;;-12.37;76.47;100667.09;224396;1284;21778;-72
2024/01/09 18:21:25;;;;;;;135.80;54.50;;;;;;;-12.43;76.60;100673.86;224477;1285;24192;-72
2024/01/09 18:26:27;;;;;;;114.80;44.10;;;;;;;-12.46;76.85;100674.04;224358;1287;22584;-72
2024/01/09 18:31:29;;;;;;;123.80;50.80;;;;;;;-12.48;76.87;100672.52;224381;1289;22305;-72
2024/01/09 18:36:31;;;;;;;145.40;56.50;;;;;;;-12.53;76.91;100675.55;224430;1286;22538;-72
2024/01/09 18:41:33;;;;;;;137.30;56.80;;;;;;;-12.62;76.74;100671.98;224408;1288;22534;-73
2024/01/09 18:46:35;;;;;;;129.60;52.50;;;;;;;-12.69;77.06;100677.39;224381;1283;22543;-73
2024/01/09 18:51:37;;;;;;;142.60;57.30;;;;;;;-12.71;77.34;100674.51;224354;1287;26407;-73
2024/01/09 18:56:40;;;;;;;134.50;52.60;;;;;;;-12.68;77.61;100670.95;224377;1288;22597;-73
2024/01/09 19:01:46;;;;;;;117.20;49.10;;;;;;;-12.65;77.77;100662.48;224604;1285;22519;-73
2024/01/09 19:06:48;;;;;;;132.40;54.00;;;;;;;-12.63;77.73;100661.65;224400;1288;22583;-73
2024/01/09 19:11:50;;;;;;;111.70;44.60;;;;;;;-12.64;77.70;100666.73;224423;1285;22545;-73
2024/01/09 19:16:53;;;;;;;140.40;56.30;;;;;;;-12.64;77.72;100673.00;224500;1286;24301;-73
2024/01/09 19:21:55;;;;;;;142.30;56.60;;;;;;;-12.60;77.77;100678.59;224813;1287;22513;-72
2024/01/09 19:26:59;;;;;;;142.40;55.70;;;;;;;-12.53;78.17;100671.31;224399;1265;21719;-72
2024/01/09 19:32:01;;;;;;;131.70;53.80;;;;;;;-12.47;78.15;100678.96;224468;1286;23623;-72
2024/01/09 19:37:03;;;;;;;143.10;57.90;;;;;;;-12.48;78.07;100673.88;224385;1286;22574;-72
2024/01/09 19:42:06;;;;;;;151.00;61.80;;;;;;;-12.53;77.75;100671.48;224385;1287;23045;-72
2024/01/09 19:47:10;;;;;;;158.30;62.50;;;;;;;-12.55;77.87;100676.41;224459;1283;22524;-73
2024/01/09 19:52:14;;;;;;;184.10;73.00;;;;;;;-12.58;77.85;100675.02;224460;1284;22648;-72
2024/01/09 19:57:18;;;;;;;226.40;91.70;;;;;;;-12.60;77.94;100674.52;224435;1281;22539;-74
2024/01/09 20:02:21;;;;;;;220.80;91.20;;;;;;;-12.60;78.04;100672.99;224408;1288;22516;-73
2024/01/09 20:07:23;;;;;;;192.50;72.70;;;;;;;-12.59;78.09;100663.32;224499;1284;21727;-72
2024/01/09 20:12:28;;;;;;;200.10;83.10;;;;;;;-12.60;78.07;100655.52;224334;1288;22588;-74
2024/01/09 20:17:30;;;;;;;208.70;83.40;;;;;;;-12.60;78.16;100650.09;224453;1286;22618;-72
2024/01/09 20:22:32;;;;;;;204.60;86.30;;;;;;;-12.62;78.11;100654.01;224437;1282;21952;-73
2024/01/09 20:27:35;;;;;;;204.30;86.70;;;;;;;-12.64;78.07;100654.02;224491;1287;25179;-72
2024/01/09 20:32:39;;;;;;;199.00;81.00;;;;;;;-12.71;78.01;100650.59;224453;1287;22664;-73
2024/01/09 20:37:44;;;;;;;216.60;86.70;;;;;;;-12.77;77.75;100654.15;224349;1288;22744;-72
2024/01/09 20:42:46;;;;;;;196.40;73.70;;;;;;;-12.79;77.89;100666.70;224477;1287;22550;-73
2024/01/09 20:47:48;;;;;;;202.50;77.00;;;;;;;-12.88;77.66;100661.74;224424;1286;22551;-73
2024/01/09 20:52:53;;;;;;;199.10;75.80;;;;;;;-13.01;77.50;100665.60;224478;1281;22559;-73
2024/01/09 20:57:56;;;;;;;243.50;88.70;;;;;;;-13.07;77.59;100667.14;224491;1288;22526;-73
2024/01/09 21:03:02;;;;;;;250.40;94.70;;;;;;;-13.09;77.87;100663.56;224443;1281;22910;-74
2024/01/09 21:08:06;;;;;;;217.40;80.60;;;;;;;-13.12;77.94;100656.09;224868;1286;22508;-71
2024/01/09 21:13:08;;;;;;;231.90;86.50;;;;;;;-13.10;77.98;100661.86;224427;1288;22518;-73
2024/01/09 21:18:11;;;;;;;217.30;76.60;;;;;;;-13.07;78.23;100665.45;224381;1287;22535;-72
2024/01/09 21:23:14;;;;;;;275.90;101.40;;;;;;;-13.05;78.31;100662.88;225150;1285;21914;-72
2024/01/09 21:28:32;;;;;;;259.30;94.40;;;;;;;-13.04;78.15;100663.38;224424;1287;22517;-72
2024/01/09 21:33:34;;;;;;;249.60;96.00;;;;;;;-13.08;78.21;100657.46;224343;1286;22546;-73
2024/01/09 21:38:36;;;;;;;251.00;100.30;;;;;;;-13.12;78.23;100656.77;224390;1287;23833;-72
2024/01/09 21:43:38;;;;;;;230.90;89.50;;;;;;;-13.15;78.22;100651.70;224338;1284;22521;-73
2024/01/09 21:48:40;;;;;;;223.90;81.60;;;;;;;-13.17;78.15;100647.11;224433;1280;21783;-73
2024/01/09 21:53:42;;;;;;;259.50;98.30;;;;;;;-13.21;78.22;100641.36;224448;1286;22545;-71
2024/01/09 21:58:44;;;;;;;253.90;96.90;;;;;;;-13.22;78.34;100643.39;224455;1284;22544;-73
2024/01/09 22:03:46;;;;;;;278.90;105.00;;;;;;;-13.22;78.38;100639.99;224449;1285;23351;-73
2024/01/09 22:08:52;;;;;;;270.50;102.20;;;;;;;-13.20;78.38;100639.47;224470;1289;22567;-74
2024/01/09 22:13:55;;;;;;;297.60;112.40;;;;;;;-13.22;78.30;100630.51;224411;1287;22528;-73
2024/01/09 22:18:57;;;;;;;293.30;112.10;;;;;;;-13.22;78.58;100630.16;224420;1283;24674;-72
2024/01/09 22:23:59;;;;;;;245.80;93.80;;;;;;;-13.32;78.06;100628.93;224465;1277;21811;-72
2024/01/09 22:29:02;;;;;;;264.10;96.60;;;;;;;-13.43;77.76;100638.71;224435;1285;21734;-72